createdAt,value
2023-05-16T00:00:21.677Z,13.10
2023-05-16T00:02:49.983Z,13.20
2023-05-16T00:05:17.992Z,13.20
2023-05-16T00:07:46.974Z,13.30
2023-05-16T00:10:15.045Z,13.30
2023-05-16T00:12:44.528Z,13.30
2023-05-16T00:15:14.655Z,13.30
2023-05-16T00:17:47.025Z,13.30
2023-05-16T00:20:17.770Z,13.30
2023-05-16T00:22:46.626Z,13.40
2023-05-16T00:25:14.374Z,13.30
2023-05-16T00:27:42.327Z,13.30
2023-05-16T00:30:10.647Z,13.40
2023-05-16T00:32:38.683Z,13.40
2023-05-16T00:35:11.097Z,13.40
2023-05-16T00:37:39.662Z,13.40
2023-05-16T00:40:08.100Z,13.30
2023-05-16T00:42:37.063Z,13.30
2023-05-16T00:45:06.677Z,13.30
2023-05-16T00:47:34.782Z,13.30
2023-05-16T00:50:03.119Z,13.30
2023-05-16T00:52:35.016Z,13.30
2023-05-16T00:55:04.788Z,13.30
2023-05-16T00:57:32.928Z,13.30
2023-05-16T01:00:00.987Z,13.30
2023-05-16T01:02:30.226Z,13.30
2023-05-16T01:04:59.050Z,13.30
2023-05-16T01:07:26.891Z,13.30
2023-05-16T01:09:55.000Z,13.30
2023-05-16T01:12:45.874Z,13.30
2023-05-16T01:15:33.565Z,13.30
2023-05-16T01:18:37.808Z,13.30
2023-05-16T01:21:17.518Z,13.40
2023-05-16T01:24:01.102Z,13.30
2023-05-16T01:26:30.539Z,13.20
2023-05-16T01:28:58.706Z,13.10
2023-05-16T01:31:26.642Z,13.00
2023-05-16T01:33:54.504Z,13.00
2023-05-16T01:37:01.028Z,13.10
2023-05-16T01:39:48.135Z,13.20
2023-05-16T01:42:17.498Z,13.20
2023-05-16T01:45:02.686Z,13.10
2023-05-16T01:47:33.606Z,13.10
2023-05-16T01:50:01.484Z,13.20
2023-05-16T01:52:43.376Z,13.20
2023-05-16T01:55:25.511Z,13.20
2023-05-16T01:57:54.747Z,13.20
2023-05-16T02:00:22.520Z,13.10
2023-05-16T02:02:50.392Z,13.10
2023-05-16T02:05:18.353Z,13.20
2023-05-16T02:07:46.547Z,13.20
2023-05-16T02:10:14.499Z,13.20
2023-05-16T02:12:42.524Z,13.10
2023-05-16T02:15:11.134Z,13.10
2023-05-16T02:17:39.645Z,13.00
2023-05-16T02:20:10.669Z,13.00
2023-05-16T02:22:43.272Z,13.10
2023-05-16T02:25:11.626Z,13.00
2023-05-16T02:27:39.392Z,13.00
2023-05-16T02:30:08.003Z,13.00
2023-05-16T02:32:35.934Z,13.00
2023-05-16T02:35:05.014Z,13.00
2023-05-16T02:37:32.892Z,13.00
2023-05-16T02:40:00.891Z,13.00
2023-05-16T02:42:29.667Z,12.90
2023-05-16T02:44:57.668Z,12.80
2023-05-16T02:47:25.720Z,12.90
2023-05-16T02:49:53.872Z,12.90
2023-05-16T02:52:22.022Z,12.80
2023-05-16T02:55:04.744Z,12.80
2023-05-16T02:57:37.920Z,12.80
2023-05-16T03:00:06.723Z,12.80
2023-05-16T03:02:34.989Z,12.80
2023-05-16T03:05:03.217Z,12.80
2023-05-16T03:07:32.210Z,12.80
2023-05-16T03:10:00.003Z,12.80
2023-05-16T03:12:27.964Z,12.80
2023-05-16T03:14:56.165Z,12.70
2023-05-16T03:17:24.210Z,12.70
2023-05-16T03:19:54.492Z,12.70
2023-05-16T03:22:22.377Z,12.60
2023-05-16T03:24:50.178Z,12.60
2023-05-16T03:27:18.083Z,12.60
2023-05-16T03:29:45.884Z,12.60
2023-05-16T03:32:14.119Z,12.60
2023-05-16T03:34:41.754Z,12.60
2023-05-16T03:37:11.399Z,12.50
2023-05-16T03:39:39.135Z,12.30
2023-05-16T03:42:08.093Z,12.30
2023-05-16T03:44:36.160Z,12.30
2023-05-16T03:47:11.899Z,12.30
2023-05-16T03:49:45.927Z,12.30
2023-05-16T03:52:18.730Z,12.30
2023-05-16T03:54:47.663Z,12.30
2023-05-16T03:57:15.585Z,12.40
2023-05-16T03:59:44.142Z,12.40
2023-05-16T04:02:12.162Z,12.40
2023-05-16T04:04:41.354Z,12.40
2023-05-16T04:07:09.313Z,12.50
2023-05-16T04:09:37.652Z,12.50
2023-05-16T04:12:05.621Z,12.50
2023-05-16T04:14:34.441Z,12.60
2023-05-16T04:17:02.411Z,12.60
2023-05-16T04:19:30.409Z,12.60
2023-05-16T04:21:58.393Z,12.60
2023-05-16T04:24:29.301Z,12.60
2023-05-16T04:26:57.201Z,12.70
2023-05-16T04:29:25.013Z,12.70
2023-05-16T04:31:53.027Z,12.80
2023-05-16T04:34:20.978Z,12.80
2023-05-16T04:36:48.861Z,12.90
2023-05-16T04:39:16.702Z,12.90
2023-05-16T04:41:44.461Z,13.00
2023-05-16T04:44:12.205Z,13.10
2023-05-16T04:46:40.335Z,13.10
2023-05-16T04:49:08.564Z,13.20
2023-05-16T04:51:36.536Z,13.20
2023-05-16T04:54:04.305Z,13.20
2023-05-16T04:56:32.287Z,13.20
2023-05-16T04:59:00.043Z,13.20
2023-05-16T05:01:28.231Z,13.30
2023-05-16T05:03:57.278Z,13.30
2023-05-16T05:06:25.515Z,13.30
2023-05-16T05:08:55.253Z,13.40
2023-05-16T05:11:23.584Z,13.50
2023-05-16T05:13:53.117Z,13.50
2023-05-16T05:16:21.434Z,13.50
2023-05-16T05:18:49.426Z,13.60
2023-05-16T05:21:17.377Z,13.60
2023-05-16T05:23:46.370Z,13.70
2023-05-16T05:26:14.523Z,13.70
2023-05-16T05:28:47.812Z,13.80
2023-05-16T05:31:19.168Z,13.90
2023-05-16T05:33:46.956Z,14.00
2023-05-16T05:36:15.233Z,14.10
2023-05-16T05:38:43.557Z,14.10
2023-05-16T05:41:12.577Z,14.20
2023-05-16T05:43:43.756Z,14.20
2023-05-16T05:46:11.785Z,14.20
2023-05-16T05:48:40.098Z,14.20
2023-05-16T05:51:08.267Z,14.30
2023-05-16T05:53:36.322Z,14.30
2023-05-16T05:56:04.443Z,14.40
2023-05-16T05:58:32.544Z,14.50
2023-05-16T06:01:00.679Z,14.50
2023-05-16T06:03:29.637Z,14.70
2023-05-16T06:05:57.941Z,14.70
2023-05-16T06:08:25.913Z,14.80
2023-05-16T06:10:54.836Z,14.90
2023-05-16T06:13:22.687Z,14.90
2023-05-16T06:15:54.233Z,15.00
2023-05-16T06:18:22.412Z,15.10
2023-05-16T06:20:50.973Z,15.10
2023-05-16T06:23:21.175Z,15.10
2023-05-16T06:25:49.590Z,15.20
2023-05-16T06:28:17.438Z,15.20
2023-05-16T06:30:45.306Z,15.30
2023-05-16T06:33:13.119Z,15.30
2023-05-16T06:35:41.555Z,15.30
2023-05-16T06:38:09.892Z,15.40
2023-05-16T06:40:37.984Z,15.50
2023-05-16T06:43:05.786Z,15.60
2023-05-16T06:45:34.060Z,15.70
2023-05-16T06:48:02.403Z,15.70
2023-05-16T06:50:30.281Z,15.70
2023-05-16T06:52:58.175Z,15.80
2023-05-16T06:55:26.331Z,16.00
2023-05-16T06:57:54.504Z,16.00
2023-05-16T07:00:22.705Z,16.10
2023-05-16T07:02:50.797Z,16.10
2023-05-16T07:05:19.090Z,16.20
2023-05-16T07:07:46.998Z,16.30
2023-05-16T07:10:14.798Z,16.20
2023-05-16T07:12:43.736Z,16.10
2023-05-16T07:15:12.398Z,16.00
2023-05-16T07:17:40.287Z,16.20
2023-05-16T07:20:12.304Z,16.30
2023-05-16T07:22:41.170Z,16.50
2023-05-16T07:25:13.107Z,16.60
2023-05-16T07:27:45.564Z,16.80
2023-05-16T07:30:14.450Z,16.90
2023-05-16T07:32:43.668Z,16.90
2023-05-16T07:35:11.808Z,17.00
2023-05-16T07:37:41.932Z,17.10
2023-05-16T07:40:11.761Z,17.10
2023-05-16T07:42:39.496Z,17.20
2023-05-16T07:45:08.145Z,17.40
2023-05-16T07:47:36.480Z,17.50
2023-05-16T07:50:04.360Z,17.60
2023-05-16T07:52:32.168Z,17.70
2023-05-16T07:55:00.069Z,17.90
2023-05-16T07:57:27.880Z,18.00
2023-05-16T07:59:56.588Z,18.20
2023-05-16T08:02:26.698Z,18.50
2023-05-16T08:04:55.293Z,18.50
2023-05-16T08:07:23.360Z,18.50
2023-05-16T08:09:52.498Z,18.60
2023-05-16T08:12:21.197Z,18.50
2023-05-16T08:14:53.465Z,18.60
2023-05-16T08:17:21.917Z,18.60
2023-05-16T08:19:51.591Z,18.80
2023-05-16T08:22:19.775Z,19.00
2023-05-16T08:24:47.528Z,19.30
2023-05-16T08:27:15.894Z,19.40
2023-05-16T08:29:45.619Z,19.20
2023-05-16T08:32:13.606Z,19.10
2023-05-16T08:34:41.607Z,19.00
2023-05-16T08:37:10.980Z,18.80
2023-05-16T08:39:42.022Z,19.00
2023-05-16T08:42:10.262Z,19.40
2023-05-16T08:44:38.248Z,19.70
2023-05-16T08:47:19.765Z,19.80
2023-05-16T08:49:49.600Z,19.80
2023-05-16T08:52:21.837Z,19.40
2023-05-16T08:55:05.698Z,18.90
2023-05-16T08:57:39.680Z,18.50
2023-05-16T09:00:12.548Z,18.20
2023-05-16T09:02:45.228Z,18.00
2023-05-16T09:05:16.137Z,17.80
2023-05-16T09:07:45.056Z,17.60
2023-05-16T09:10:13.991Z,17.90
2023-05-16T09:12:43.137Z,18.00
2023-05-16T09:15:12.140Z,18.00
2023-05-16T09:17:44.471Z,18.10
2023-05-16T09:20:17.871Z,18.00
2023-05-16T09:22:57.629Z,17.90
2023-05-16T09:25:31.978Z,17.80
2023-05-16T09:28:03.148Z,17.80
2023-05-16T09:30:37.567Z,17.80
2023-05-16T09:33:08.477Z,17.70
2023-05-16T09:38:16.625Z,17.50
2023-05-16T09:40:46.320Z,17.50
2023-05-16T09:43:18.055Z,17.00
2023-05-16T09:45:48.808Z,16.70
2023-05-16T09:48:18.796Z,16.50
2023-05-16T09:50:53.589Z,16.50
2023-05-16T09:53:35.549Z,16.60
2023-05-16T09:56:13.256Z,16.80
2023-05-16T09:58:46.525Z,16.90
2023-05-16T10:01:14.722Z,16.80
2023-05-16T10:03:44.211Z,17.10
2023-05-16T10:06:14.286Z,17.60
2023-05-16T10:08:43.932Z,18.10
2023-05-16T10:11:12.653Z,18.30
2023-05-16T10:13:41.361Z,18.50
2023-05-16T10:16:12.839Z,18.50
2023-05-16T10:18:43.202Z,18.40
2023-05-16T10:21:16.649Z,18.10
2023-05-16T10:23:48.890Z,17.90
2023-05-16T10:26:18.390Z,17.50
2023-05-16T10:28:46.825Z,17.40
2023-05-16T10:31:16.034Z,17.40
2023-05-16T10:33:44.511Z,17.40
2023-05-16T10:36:14.576Z,17.70
2023-05-16T10:38:45.937Z,17.80
2023-05-16T10:41:14.816Z,17.80
2023-05-16T10:43:57.026Z,18.10
2023-05-16T10:46:27.457Z,18.10
2023-05-16T10:48:57.118Z,18.40
2023-05-16T10:51:38.718Z,18.80
2023-05-16T10:54:10.278Z,18.90
2023-05-16T10:56:38.646Z,19.40
2023-05-16T10:59:25.501Z,19.80
2023-05-16T11:01:56.087Z,20.00
2023-05-16T11:04:24.658Z,19.70
2023-05-16T11:06:54.124Z,19.60
2023-05-16T11:09:27.332Z,20.30
2023-05-16T11:12:01.850Z,20.80
2023-05-16T11:14:33.181Z,20.50
2023-05-16T11:17:15.126Z,21.00
2023-05-16T11:19:51.254Z,20.50
2023-05-16T11:22:33.293Z,20.20
2023-05-16T11:25:09.230Z,20.40
2023-05-16T11:27:48.317Z,19.90
2023-05-16T11:30:20.159Z,19.90
2023-05-16T11:32:49.268Z,19.40
2023-05-16T11:35:18.655Z,19.20
2023-05-16T11:37:48.447Z,19.10
2023-05-16T11:40:17.697Z,18.90
2023-05-16T11:42:49.150Z,18.70
2023-05-16T11:45:19.801Z,18.90
2023-05-16T11:47:49.804Z,18.60
2023-05-16T11:50:21.725Z,18.60
2023-05-16T11:52:54.558Z,18.40
2023-05-16T11:55:40.371Z,18.20
2023-05-16T11:58:09.850Z,18.00
2023-05-16T12:00:41.044Z,18.10
2023-05-16T12:03:09.381Z,18.40
2023-05-16T12:05:39.171Z,19.20
2023-05-16T12:08:07.714Z,20.10
2023-05-16T12:10:35.818Z,20.40
2023-05-16T12:13:04.921Z,20.90
2023-05-16T12:15:33.976Z,20.80
2023-05-16T12:18:05.566Z,20.90
2023-05-16T12:20:34.614Z,20.90
2023-05-16T12:23:05.228Z,20.30
2023-05-16T12:25:42.447Z,20.10
2023-05-16T12:28:12.777Z,19.80
2023-05-16T12:30:43.988Z,19.10
2023-05-16T12:33:14.478Z,18.90
2023-05-16T12:35:48.476Z,18.90
2023-05-16T12:38:18.047Z,18.90
2023-05-16T12:40:46.847Z,18.70
2023-05-16T12:43:18.582Z,18.90
2023-05-16T12:45:57.877Z,18.90
2023-05-16T12:48:37.783Z,18.70
2023-05-16T12:51:17.497Z,18.80
2023-05-16T12:54:05.631Z,18.80
2023-05-16T12:56:40.554Z,19.10
2023-05-16T12:59:09.596Z,19.10
2023-05-16T13:01:39.411Z,19.10
2023-05-16T13:04:08.129Z,19.00
2023-05-16T13:06:55.661Z,18.80
2023-05-16T13:09:25.124Z,18.50
2023-05-16T13:11:55.112Z,18.30
2023-05-16T13:14:24.439Z,18.20
2023-05-16T13:16:52.233Z,17.90
2023-05-16T13:19:21.175Z,17.40
2023-05-16T13:21:49.704Z,17.10
2023-05-16T13:24:17.778Z,16.50
2023-05-16T13:26:45.957Z,16.10
2023-05-16T13:29:15.422Z,16.20
2023-05-16T13:31:43.430Z,16.90
2023-05-16T13:34:11.664Z,17.60
2023-05-16T13:36:53.159Z,18.10
2023-05-16T13:39:23.763Z,18.60
2023-05-16T13:41:52.495Z,18.80
2023-05-16T13:44:21.944Z,18.30
2023-05-16T13:46:50.113Z,18.10
2023-05-16T13:49:18.344Z,17.80
2023-05-16T13:51:46.199Z,17.50
2023-05-16T13:54:17.561Z,17.40
2023-05-16T13:56:45.946Z,17.40
2023-05-16T13:59:18.497Z,17.40
2023-05-16T14:01:55.595Z,17.30
2023-05-16T14:04:27.156Z,17.00
2023-05-16T14:06:56.893Z,16.70
2023-05-16T14:09:24.899Z,16.50
2023-05-16T14:11:53.174Z,16.40
2023-05-16T14:14:22.066Z,16.50
2023-05-16T14:16:50.216Z,16.70
2023-05-16T14:19:19.587Z,17.00
2023-05-16T14:21:51.119Z,17.30
2023-05-16T14:24:20.731Z,17.40
2023-05-16T14:26:48.541Z,17.40
2023-05-16T14:29:16.642Z,17.00
2023-05-16T14:31:44.435Z,16.70
2023-05-16T14:34:12.556Z,16.60
2023-05-16T14:36:40.537Z,16.60
2023-05-16T14:39:09.721Z,16.20
2023-05-16T14:41:37.878Z,16.20
2023-05-16T14:44:06.334Z,16.30
2023-05-16T14:46:34.730Z,16.70
2023-05-16T14:49:02.945Z,17.00
2023-05-16T14:51:32.246Z,17.50
2023-05-16T14:54:01.066Z,17.90
2023-05-16T14:56:29.224Z,18.20
2023-05-16T14:58:57.806Z,18.50
2023-05-16T15:01:25.875Z,18.60
2023-05-16T15:03:56.256Z,18.60
2023-05-16T15:06:25.866Z,18.80
2023-05-16T15:08:54.465Z,19.00
2023-05-16T15:11:23.638Z,19.30
2023-05-16T15:13:51.481Z,19.50
2023-05-16T15:16:19.983Z,19.60
2023-05-16T15:18:47.881Z,19.70
2023-05-16T15:21:15.947Z,19.90
2023-05-16T15:23:44.235Z,19.90
2023-05-16T15:26:12.265Z,19.90
2023-05-16T15:28:40.216Z,19.80
2023-05-16T15:31:08.605Z,19.70
2023-05-16T15:33:36.747Z,19.70
2023-05-16T15:36:05.338Z,19.70
2023-05-16T15:38:33.475Z,19.60
2023-05-16T15:41:18.171Z,19.40
2023-05-16T15:43:51.571Z,19.30
2023-05-16T15:46:19.658Z,19.10
2023-05-16T15:48:47.811Z,19.00
2023-05-16T15:51:16.678Z,18.90
2023-05-16T15:53:45.537Z,18.90
2023-05-16T15:56:13.415Z,18.90
2023-05-16T15:58:42.813Z,18.90
2023-05-16T16:01:14.344Z,18.80
2023-05-16T16:03:42.744Z,18.70
2023-05-16T16:06:10.997Z,18.60
2023-05-16T16:08:39.519Z,18.50
2023-05-16T16:11:07.611Z,18.40
2023-05-16T16:13:35.732Z,18.60
2023-05-16T16:16:03.661Z,18.70
2023-05-16T16:18:32.080Z,18.90
2023-05-16T16:21:00.341Z,19.10
2023-05-16T16:23:28.816Z,19.20
2023-05-16T16:25:57.058Z,19.00
2023-05-16T16:28:25.490Z,18.90
2023-05-16T16:30:53.941Z,18.80
2023-05-16T16:33:22.327Z,18.50
2023-05-16T16:35:52.173Z,18.20
2023-05-16T16:38:23.710Z,18.00
2023-05-16T16:40:51.703Z,18.00
2023-05-16T16:43:19.478Z,17.90
2023-05-16T16:45:48.034Z,17.90
2023-05-16T16:48:16.978Z,17.80
2023-05-16T16:50:45.491Z,17.70
2023-05-16T16:53:13.619Z,17.50
2023-05-16T16:55:41.944Z,17.40
2023-05-16T16:58:09.947Z,17.40
2023-05-16T17:00:38.740Z,17.30
2023-05-16T17:03:09.477Z,17.10
2023-05-16T17:05:37.537Z,17.00
2023-05-16T17:08:07.078Z,16.70
2023-05-16T17:10:35.075Z,16.60
2023-05-16T17:13:07.751Z,16.50
2023-05-16T17:15:36.726Z,16.50
2023-05-16T17:18:08.927Z,16.30
2023-05-16T17:20:37.604Z,16.20
2023-05-16T17:23:05.809Z,16.10
2023-05-16T17:25:34.085Z,16.10
2023-05-16T17:28:01.931Z,16.10
2023-05-16T17:30:30.103Z,16.00
2023-05-16T17:32:58.212Z,16.00
2023-05-16T17:35:26.565Z,16.00
2023-05-16T17:37:55.013Z,16.00
2023-05-16T17:40:24.847Z,16.00
2023-05-16T17:42:53.063Z,16.00
2023-05-16T17:45:21.090Z,15.90
2023-05-16T17:47:49.397Z,15.90
2023-05-16T17:50:19.370Z,15.70
2023-05-16T17:52:47.530Z,15.50
2023-05-16T17:55:17.745Z,15.30
2023-05-16T17:57:45.846Z,15.20
2023-05-16T18:00:16.243Z,15.10
2023-05-16T18:02:45.034Z,15.20
2023-05-16T18:05:14.345Z,15.10
2023-05-16T18:07:43.004Z,15.10
2023-05-16T18:10:12.097Z,15.20
2023-05-16T18:12:42.048Z,15.30
2023-05-16T18:15:11.349Z,15.30
2023-05-16T18:17:39.636Z,15.40
2023-05-16T18:20:11.923Z,15.40
2023-05-16T18:22:43.453Z,15.30
2023-05-16T18:25:12.400Z,15.20
2023-05-16T18:27:40.497Z,15.10
2023-05-16T18:30:09.349Z,15.00
2023-05-16T18:32:43.746Z,15.00
2023-05-16T18:35:11.764Z,14.90
2023-05-16T18:37:40.152Z,14.80
2023-05-16T18:40:11.864Z,14.80
2023-05-16T18:42:40.194Z,14.70
2023-05-16T18:45:08.582Z,14.70
2023-05-16T18:47:39.328Z,14.70
2023-05-16T18:50:11.979Z,14.70
2023-05-16T18:52:41.571Z,14.70
2023-05-16T18:55:10.175Z,14.50
2023-05-16T18:57:39.448Z,14.50
2023-05-16T19:00:09.635Z,14.50
2023-05-16T19:02:42.418Z,14.60
2023-05-16T19:05:15.543Z,14.60
2023-05-16T19:07:50.857Z,14.70
2023-05-16T19:10:20.857Z,14.70
2023-05-16T19:12:50.433Z,14.80
2023-05-16T19:15:21.085Z,14.80
2023-05-16T19:17:52.950Z,14.80
2023-05-16T19:20:23.759Z,14.80
2023-05-16T19:22:52.971Z,14.80
2023-05-16T19:25:20.922Z,14.90
2023-05-16T19:27:49.330Z,14.80
2023-05-16T19:30:19.756Z,14.80
2023-05-16T19:32:49.998Z,14.80
2023-05-16T19:35:22.235Z,14.80
2023-05-16T19:37:52.691Z,14.80
2023-05-16T19:40:21.217Z,14.80
2023-05-16T19:42:49.766Z,14.80
2023-05-16T19:45:17.861Z,14.80
2023-05-16T19:47:46.985Z,14.90
2023-05-16T19:50:16.145Z,14.80
2023-05-16T19:52:45.210Z,14.80
2023-05-16T19:55:17.291Z,14.80
2023-05-16T19:57:45.486Z,14.80
2023-05-16T20:00:15.293Z,14.70
2023-05-16T20:02:51.133Z,14.80
2023-05-16T20:05:23.508Z,14.80
2023-05-16T20:07:54.980Z,14.80
2023-05-16T20:10:23.743Z,14.70
2023-05-16T20:12:53.562Z,14.70
2023-05-16T20:15:25.607Z,14.70
2023-05-16T20:17:57.384Z,14.70
2023-05-16T20:20:28.691Z,14.60
2023-05-16T20:22:58.636Z,14.70
2023-05-16T20:25:27.453Z,14.70
2023-05-16T20:27:58.340Z,14.60
2023-05-16T20:30:28.084Z,14.70
2023-05-16T20:32:56.713Z,14.70
2023-05-16T20:35:24.924Z,14.70
2023-05-16T20:37:57.714Z,14.70
2023-05-16T20:40:27.081Z,14.60
2023-05-16T20:42:57.306Z,14.60
2023-05-16T20:45:27.890Z,14.60
2023-05-16T20:47:58.340Z,14.60
2023-05-16T20:50:29.593Z,14.60
2023-05-16T20:53:06.195Z,14.60
2023-05-16T20:55:37.453Z,14.60
2023-05-16T20:58:07.264Z,14.50
2023-05-16T21:00:36.819Z,14.50
2023-05-16T21:03:06.281Z,14.50
2023-05-16T21:05:37.105Z,14.50
2023-05-16T21:08:07.170Z,14.40
2023-05-16T21:10:35.385Z,14.40
2023-05-16T21:13:07.216Z,14.30
2023-05-16T21:15:35.428Z,14.30
2023-05-16T21:18:05.121Z,14.30
2023-05-16T21:20:33.248Z,14.30
2023-05-16T21:23:01.645Z,14.40
2023-05-16T21:25:30.298Z,14.40
2023-05-16T21:27:59.503Z,14.30
2023-05-16T21:30:27.808Z,14.30
2023-05-16T21:32:55.983Z,14.30
2023-05-16T21:35:24.620Z,14.30
2023-05-16T21:37:55.201Z,14.30
2023-05-16T21:40:26.094Z,14.20
2023-05-16T21:42:54.562Z,14.20
2023-05-16T21:45:22.796Z,14.20
2023-05-16T21:47:51.079Z,14.20
2023-05-16T21:50:19.471Z,14.30
2023-05-16T21:52:47.654Z,14.20
2023-05-16T21:55:16.214Z,14.20
2023-05-16T21:57:44.527Z,14.20
2023-05-16T22:00:14.331Z,14.20
2023-05-16T22:02:42.751Z,14.20
2023-05-16T22:05:11.185Z,14.20
2023-05-16T22:07:39.480Z,14.20
2023-05-16T22:10:07.985Z,14.20
2023-05-16T22:12:36.174Z,14.20
2023-05-16T22:15:04.690Z,14.10
2023-05-16T22:17:32.998Z,14.10
2023-05-16T22:20:02.527Z,14.20
2023-05-16T22:22:30.514Z,14.10
2023-05-16T22:24:58.571Z,14.10
2023-05-16T22:27:26.749Z,14.00
2023-05-16T22:29:54.478Z,14.00
2023-05-16T22:32:22.852Z,14.10
2023-05-16T22:34:50.655Z,14.10
2023-05-16T22:37:18.858Z,14.10
2023-05-16T22:39:47.277Z,14.10
2023-05-16T22:42:15.415Z,14.10
2023-05-16T22:44:43.461Z,14.10
2023-05-16T22:47:11.660Z,14.10
2023-05-16T22:49:39.622Z,14.10
2023-05-16T22:52:08.026Z,14.10
2023-05-16T22:54:36.042Z,14.10
2023-05-16T22:57:04.254Z,14.10
2023-05-16T22:59:32.464Z,14.10
2023-05-16T23:02:00.721Z,14.10
2023-05-16T23:04:28.645Z,14.00
2023-05-16T23:06:56.870Z,14.10
2023-05-16T23:09:24.971Z,14.00
2023-05-16T23:11:53.138Z,14.10
2023-05-16T23:14:20.945Z,14.00
2023-05-16T23:16:48.930Z,14.10
2023-05-16T23:19:16.858Z,14.10
2023-05-16T23:21:45.206Z,14.00
2023-05-16T23:24:13.109Z,14.00
2023-05-16T23:26:41.283Z,14.00
2023-05-16T23:29:09.067Z,13.90
2023-05-16T23:31:37.210Z,13.90
2023-05-16T23:34:05.212Z,14.00
2023-05-16T23:36:33.088Z,14.00
2023-05-16T23:39:01.124Z,14.00
2023-05-16T23:41:29.150Z,14.10
2023-05-16T23:43:56.966Z,14.10
2023-05-16T23:46:24.973Z,14.10
2023-05-16T23:48:52.983Z,14.10
2023-05-16T23:51:22.170Z,14.10
2023-05-16T23:53:50.180Z,14.10
2023-05-16T23:56:18.397Z,14.10
2023-05-16T23:58:46.394Z,14.00
